CDT,Max TemperatureF,Mean TemperatureF,Min TemperatureF,Max Dew PointF,MeanDew PointF,Min DewpointF,Max Humidity, Mean Humidity, Min Humidity, Max Sea Level PressureIn, Mean Sea Level PressureIn, Min Sea Level PressureIn, Max VisibilityMiles, Mean VisibilityMiles, Min VisibilityMiles, Max Wind SpeedMPH, Mean Wind SpeedMPH, Max Gust SpeedMPH,PrecipitationIn, CloudCover, Events, WindDirDegrees
2013-10-1,66,56,45,43,36,31,89,59,28,29.92,29.80,29.63,,,,28,14,36,0.00,,,262
2013-10-2,66,54,41,44,37,28,86,56,26,30.03,29.97,29.92,,,,17,7,23,0.00,,,329
2013-10-3,56,50,44,39,38,36,83,67,51,30.25,30.11,30.02,,,,14,7,21,0.00,,,28
2013-10-4,43,41,38,39,32,29,92,78,64,30.37,30.31,30.25,,,,16,13,30,0.00,,,32
2013-10-5,49,41,33,33,29,26,82,64,46,30.22,30.14,30.07,,,,22,17,35,0.00,,,357
2013-10-6,69,48,27,39,33,24,85,55,24,30.09,30.01,29.94,,,,21,9,26,0.00,,,307
2013-10-7,69,52,34,45,40,33,92,66,40,29.96,29.85,29.67,,,,21,9,24,0.00,,,178
2013-10-8,70,55,39,43,37,31,93,60,26,29.86,29.68,29.56,,,,22,7,25,0.00,,,313
2013-10-9,67,51,34,40,36,32,89,59,29,30.05,30.01,29.88,,,,12,6,15,0.00,,,339
2013-10-10,68,54,39,50,43,37,92,66,40,30.00,29.82,29.66,,,,15,6,20,0.00,,,66
2013-10-11,59,56,52,57,53,50,100,93,86,29.63,29.48,29.36,,,,33,10,41,1.71,,,3
2013-10-12,,,,,,,,,,30.20,29.95,29.61,,,,31,22,41,0.01,,,306
2013-10-13,,,,,,,,,,30.33,30.27,30.22,,,,9,4,,0.00,,,113
2013-10-14,,,,,,,,,,30.26,30.17,30.11,,,,17,13,28,0.92,,,53
2013-10-15,50,44,38,38,34,31,100,76,52,30.22,30.15,30.07,,,,15,11,27,0.01,,,333
2013-10-16,58,46,34,42,36,30,92,70,47,30.07,29.95,29.87,,,,15,9,20,0.00,,,295
2013-10-17,48,42,35,40,32,28,93,71,49,30.10,30.05,29.97,,,,23,13,28,0.04,,,317
2013-10-18,47,40,33,39,34,30,96,75,53,30.04,29.96,29.82,,,,29,11,35,0.00,,,294
2013-10-19,48,41,33,42,35,30,96,81,66,29.87,29.77,29.62,,,,13,5,15,0.00,,,92
2013-10-20,45,40,34,43,33,23,100,85,70,30.07,29.90,29.62,,,,20,14,30,0.04,,,339
2013-10-21,36,31,26,33,27,24,96,80,64,30.07,30.02,29.97,,,,10,4,13,0.03,,,88
2013-10-22,35,33,30,32,30,28,100,88,75,30.17,30.11,30.01,,,,12,5,14,0.02,,,27
2013-10-23,39,36,32,33,30,26,100,85,70,30.32,30.21,30.07,,,,17,7,22,0.07,,,334
2013-10-24,40,33,26,30,27,25,92,78,64,30.40,30.35,30.25,,,,14,8,16,0.00,,,307
2013-10-25,60,46,31,42,33,27,92,64,36,30.22,30.04,29.94,,,,33,17,44,0.00,,,281
2013-10-26,46,36,25,32,27,24,92,71,49,30.30,30.16,29.86,,,,14,9,18,0.00,,,269
2013-10-27,43,38,33,33,28,18,89,75,60,30.44,30.07,29.83,,,,17,11,26,0.00,,,27
2013-10-28,29,26,22,18,17,15,77,70,63,30.62,30.55,30.48,,,,16,10,22,0.00,,,71
2013-10-29,39,31,23,27,23,18,81,70,59,30.50,30.27,30.10,,,,13,8,16,0.00,,,160
2013-10-30,42,37,31,34,31,28,100,85,70,30.08,29.88,29.70,,,,12,7,15,0.00,,,210
2013-10-31,47,38,29,36,32,27,100,83,65,29.67,29.60,29.55,,,,21,11,26,0.00,,,297